sensor_id;sensor_type;location;lat;lon;timestamp;P1;durP1;ratioP1;P2;durP2;ratioP2
38797;SDS011;24546;52.240;16.826;2022-11-20T00:01:36;16.42;;;10.25;;
38797;SDS011;24546;52.240;16.826;2022-11-20T00:06:36;18.92;;;10.73;;
38797;SDS011;24546;52.240;16.826;2022-11-20T00:11:40;16.30;;;10.32;;
38797;SDS011;24546;52.240;16.826;2022-11-20T00:16:42;20.92;;;11.85;;
38797;SDS011;24546;52.240;16.826;2022-11-20T00:21:42;19.35;;;10.25;;
38797;SDS011;24546;52.240;16.826;2022-11-20T00:26:44;19.00;;;11.80;;
38797;SDS011;24546;52.240;16.826;2022-11-20T00:31:47;21.67;;;12.93;;
38797;SDS011;24546;52.240;16.826;2022-11-20T00:36:48;23.00;;;12.73;;
38797;SDS011;24546;52.240;16.826;2022-11-20T00:41:48;23.35;;;11.02;;
38797;SDS011;24546;52.240;16.826;2022-11-20T00:46:50;19.70;;;10.93;;
38797;SDS011;24546;52.240;16.826;2022-11-20T00:51:51;20.67;;;11.05;;
38797;SDS011;24546;52.240;16.826;2022-11-20T00:56:52;21.73;;;12.15;;
38797;SDS011;24546;52.240;16.826;2022-11-20T01:01:53;18.00;;;10.65;;
38797;SDS011;24546;52.240;16.826;2022-11-20T01:06:54;19.73;;;12.15;;
38797;SDS011;24546;52.240;16.826;2022-11-20T01:11:55;21.08;;;11.82;;
38797;SDS011;24546;52.240;16.826;2022-11-20T01:16:56;23.17;;;13.18;;
38797;SDS011;24546;52.240;16.826;2022-11-20T01:21:57;24.75;;;13.13;;
38797;SDS011;24546;52.240;16.826;2022-11-20T01:26:58;24.75;;;13.45;;
38797;SDS011;24546;52.240;16.826;2022-11-20T01:32:00;25.00;;;12.85;;
38797;SDS011;24546;52.240;16.826;2022-11-20T01:37:01;22.67;;;12.52;;
38797;SDS011;24546;52.240;16.826;2022-11-20T01:42:02;26.15;;;13.00;;
38797;SDS011;24546;52.240;16.826;2022-11-20T01:47:24;22.98;;;13.48;;
38797;SDS011;24546;52.240;16.826;2022-11-20T01:57:48;22.65;;;12.65;;
38797;SDS011;24546;52.240;16.826;2022-11-20T02:02:59;19.95;;;11.40;;
38797;SDS011;24546;52.240;16.826;2022-11-20T02:08:04;23.05;;;12.55;;
38797;SDS011;24546;52.240;16.826;2022-11-20T02:13:06;21.63;;;12.38;;
38797;SDS011;24546;52.240;16.826;2022-11-20T02:18:26;25.15;;;13.48;;
38797;SDS011;24546;52.240;16.826;2022-11-20T02:23:29;23.90;;;13.27;;
38797;SDS011;24546;52.240;16.826;2022-11-20T02:28:35;23.55;;;13.68;;
38797;SDS011;24546;52.240;16.826;2022-11-20T02:33:37;26.25;;;13.43;;
38797;SDS011;24546;52.240;16.826;2022-11-20T02:38:38;24.48;;;13.73;;
38797;SDS011;24546;52.240;16.826;2022-11-20T02:43:41;24.60;;;13.88;;
38797;SDS011;24546;52.240;16.826;2022-11-20T02:48:42;23.17;;;12.27;;
38797;SDS011;24546;52.240;16.826;2022-11-20T02:53:43;23.08;;;12.60;;
38797;SDS011;24546;52.240;16.826;2022-11-20T02:58:44;20.92;;;12.88;;
38797;SDS011;24546;52.240;16.826;2022-11-20T03:03:47;22.35;;;12.35;;
38797;SDS011;24546;52.240;16.826;2022-11-20T03:08:52;19.88;;;12.20;;
38797;SDS011;24546;52.240;16.826;2022-11-20T03:13:53;22.27;;;11.38;;
38797;SDS011;24546;52.240;16.826;2022-11-20T03:18:54;20.67;;;11.45;;
38797;SDS011;24546;52.240;16.826;2022-11-20T03:23:55;21.25;;;11.77;;
38797;SDS011;24546;52.240;16.826;2022-11-20T03:29:00;18.95;;;11.20;;
38797;SDS011;24546;52.240;16.826;2022-11-20T03:34:03;21.35;;;11.88;;
38797;SDS011;24546;52.240;16.826;2022-11-20T03:39:04;21.33;;;12.88;;
38797;SDS011;24546;52.240;16.826;2022-11-20T03:44:06;19.23;;;10.88;;
38797;SDS011;24546;52.240;16.826;2022-11-20T03:49:08;19.60;;;11.52;;
38797;SDS011;24546;52.240;16.826;2022-11-20T03:54:09;18.23;;;11.55;;
38797;SDS011;24546;52.240;16.826;2022-11-20T03:59:10;19.80;;;11.00;;
38797;SDS011;24546;52.240;16.826;2022-11-20T04:04:11;21.40;;;12.05;;
38797;SDS011;24546;52.240;16.826;2022-11-20T04:09:12;17.58;;;10.77;;
38797;SDS011;24546;52.240;16.826;2022-11-20T04:14:14;22.23;;;11.68;;
38797;SDS011;24546;52.240;16.826;2022-11-20T04:19:21;29.08;;;12.35;;
38797;SDS011;24546;52.240;16.826;2022-11-20T04:24:22;21.27;;;11.90;;
38797;SDS011;24546;52.240;16.826;2022-11-20T04:29:23;22.35;;;12.15;;
38797;SDS011;24546;52.240;16.826;2022-11-20T04:34:24;20.88;;;12.98;;
38797;SDS011;24546;52.240;16.826;2022-11-20T04:39:25;22.63;;;13.48;;
38797;SDS011;24546;52.240;16.826;2022-11-20T04:44:26;26.17;;;14.30;;
38797;SDS011;24546;52.240;16.826;2022-11-20T04:49:26;30.55;;;16.17;;
38797;SDS011;24546;52.240;16.826;2022-11-20T04:54:27;29.33;;;15.65;;
38797;SDS011;24546;52.240;16.826;2022-11-20T04:59:28;29.42;;;15.75;;
38797;SDS011;24546;52.240;16.826;2022-11-20T05:04:29;24.70;;;13.93;;
38797;SDS011;24546;52.240;16.826;2022-11-20T05:09:30;27.85;;;15.57;;
38797;SDS011;24546;52.240;16.826;2022-11-20T05:14:31;27.23;;;14.90;;
38797;SDS011;24546;52.240;16.826;2022-11-20T05:19:32;26.77;;;15.18;;
38797;SDS011;24546;52.240;16.826;2022-11-20T05:24:33;28.10;;;15.90;;
38797;SDS011;24546;52.240;16.826;2022-11-20T05:29:34;28.35;;;15.50;;
38797;SDS011;24546;52.240;16.826;2022-11-20T05:34:35;34.78;;;17.83;;
38797;SDS011;24546;52.240;16.826;2022-11-20T05:39:36;29.70;;;16.52;;
38797;SDS011;24546;52.240;16.826;2022-11-20T05:44:37;28.95;;;16.70;;
38797;SDS011;24546;52.240;16.826;2022-11-20T05:49:38;30.67;;;15.85;;
38797;SDS011;24546;52.240;16.826;2022-11-20T05:54:38;28.27;;;15.98;;
38797;SDS011;24546;52.240;16.826;2022-11-20T05:59:39;29.42;;;16.42;;
38797;SDS011;24546;52.240;16.826;2022-11-20T06:04:40;29.95;;;15.15;;
38797;SDS011;24546;52.240;16.826;2022-11-20T06:09:42;36.45;;;18.38;;
38797;SDS011;24546;52.240;16.826;2022-11-20T06:14:43;36.90;;;19.13;;
38797;SDS011;24546;52.240;16.826;2022-11-20T06:19:44;37.25;;;17.80;;
38797;SDS011;24546;52.240;16.826;2022-11-20T06:24:45;40.63;;;19.92;;
38797;SDS011;24546;52.240;16.826;2022-11-20T06:29:46;39.47;;;20.90;;
38797;SDS011;24546;52.240;16.826;2022-11-20T06:34:47;36.17;;;19.45;;
38797;SDS011;24546;52.240;16.826;2022-11-20T06:39:47;37.00;;;19.63;;
38797;SDS011;24546;52.240;16.826;2022-11-20T06:44:48;37.35;;;19.20;;
38797;SDS011;24546;52.240;16.826;2022-11-20T06:49:49;36.33;;;20.20;;
38797;SDS011;24546;52.240;16.826;2022-11-20T06:54:50;40.88;;;21.23;;
38797;SDS011;24546;52.240;16.826;2022-11-20T06:59:51;38.03;;;20.10;;
38797;SDS011;24546;52.240;16.826;2022-11-20T07:04:51;38.78;;;18.80;;
38797;SDS011;24546;52.240;16.826;2022-11-20T07:09:52;36.67;;;19.40;;
38797;SDS011;24546;52.240;16.826;2022-11-20T07:14:53;34.83;;;18.35;;
38797;SDS011;24546;52.240;16.826;2022-11-20T07:19:54;37.65;;;19.33;;
38797;SDS011;24546;52.240;16.826;2022-11-20T07:24:55;38.10;;;20.48;;
38797;SDS011;24546;52.240;16.826;2022-11-20T07:29:56;36.70;;;18.80;;
38797;SDS011;24546;52.240;16.826;2022-11-20T07:34:57;32.45;;;17.73;;
38797;SDS011;24546;52.240;16.826;2022-11-20T07:39:58;36.10;;;17.40;;
38797;SDS011;24546;52.240;16.826;2022-11-20T07:44:58;39.63;;;19.48;;
38797;SDS011;24546;52.240;16.826;2022-11-20T07:49:59;41.58;;;22.50;;
38797;SDS011;24546;52.240;16.826;2022-11-20T07:55:00;39.90;;;21.95;;
38797;SDS011;24546;52.240;16.826;2022-11-20T08:00:01;39.90;;;20.70;;
38797;SDS011;24546;52.240;16.826;2022-11-20T08:05:12;40.83;;;20.15;;
38797;SDS011;24546;52.240;16.826;2022-11-20T08:10:13;37.40;;;19.65;;
38797;SDS011;24546;52.240;16.826;2022-11-20T08:15:16;33.28;;;18.42;;
38797;SDS011;24546;52.240;16.826;2022-11-20T08:20:17;35.75;;;19.88;;
38797;SDS011;24546;52.240;16.826;2022-11-20T08:25:18;36.13;;;20.33;;
38797;SDS011;24546;52.240;16.826;2022-11-20T08:30:18;35.25;;;18.40;;
38797;SDS011;24546;52.240;16.826;2022-11-20T08:35:22;36.78;;;20.40;;
38797;SDS011;24546;52.240;16.826;2022-11-20T08:40:23;33.95;;;18.77;;
38797;SDS011;24546;52.240;16.826;2022-11-20T08:45:24;35.17;;;20.02;;
38797;SDS011;24546;52.240;16.826;2022-11-20T08:50:25;34.55;;;18.50;;
38797;SDS011;24546;52.240;16.826;2022-11-20T08:55:26;34.63;;;18.48;;
38797;SDS011;24546;52.240;16.826;2022-11-20T09:00:27;35.70;;;19.17;;
38797;SDS011;24546;52.240;16.826;2022-11-20T09:05:28;31.77;;;16.85;;
38797;SDS011;24546;52.240;16.826;2022-11-20T09:10:29;34.88;;;19.25;;
38797;SDS011;24546;52.240;16.826;2022-11-20T09:15:30;32.38;;;19.17;;
38797;SDS011;24546;52.240;16.826;2022-11-20T09:20:35;32.28;;;17.25;;
38797;SDS011;24546;52.240;16.826;2022-11-20T09:25:35;32.42;;;16.77;;
38797;SDS011;24546;52.240;16.826;2022-11-20T09:30:37;35.53;;;20.25;;
38797;SDS011;24546;52.240;16.826;2022-11-20T09:35:38;33.00;;;18.00;;
38797;SDS011;24546;52.240;16.826;2022-11-20T09:46:09;32.25;;;17.25;;
38797;SDS011;24546;52.240;16.826;2022-11-20T09:56:51;34.00;;;17.15;;
38797;SDS011;24546;52.240;16.826;2022-11-20T10:01:56;32.47;;;19.03;;
38797;SDS011;24546;52.240;16.826;2022-11-20T10:12:13;26.38;;;14.75;;
38797;SDS011;24546;52.240;16.826;2022-11-20T10:28:15;25.60;;;15.07;;
38797;SDS011;24546;52.240;16.826;2022-11-20T10:33:38;29.00;;;16.13;;
38797;SDS011;24546;52.240;16.826;2022-11-20T10:38:43;29.45;;;16.83;;
38797;SDS011;24546;52.240;16.826;2022-11-20T10:43:59;30.75;;;16.52;;
38797;SDS011;24546;52.240;16.826;2022-11-20T10:49:13;28.67;;;15.88;;
38797;SDS011;24546;52.240;16.826;2022-11-20T10:54:24;34.97;;;18.50;;
38797;SDS011;24546;52.240;16.826;2022-11-20T11:05:11;36.58;;;20.08;;
38797;SDS011;24546;52.240;16.826;2022-11-20T11:15:29;34.30;;;18.80;;
38797;SDS011;24546;52.240;16.826;2022-11-20T11:20:40;31.60;;;17.90;;
38797;SDS011;24546;52.240;16.826;2022-11-20T11:25:56;41.80;;;21.63;;
38797;SDS011;24546;52.240;16.826;2022-11-20T11:30:58;35.50;;;20.15;;
38797;SDS011;24546;52.240;16.826;2022-11-20T11:36:00;39.83;;;20.33;;
38797;SDS011;24546;52.240;16.826;2022-11-20T11:41:08;37.03;;;19.50;;
38797;SDS011;24546;52.240;16.826;2022-11-20T11:51:20;27.20;;;14.98;;
38797;SDS011;24546;52.240;16.826;2022-11-20T11:56:21;28.85;;;16.00;;
38797;SDS011;24546;52.240;16.826;2022-11-20T12:16:54;30.42;;;16.60;;
38797;SDS011;24546;52.240;16.826;2022-11-20T12:33:12;36.60;;;20.42;;
38797;SDS011;24546;52.240;16.826;2022-11-20T12:43:31;44.88;;;23.88;;
38797;SDS011;24546;52.240;16.826;2022-11-20T12:49:34;42.22;;;23.83;;
38797;SDS011;24546;52.240;16.826;2022-11-20T13:00:23;40.72;;;22.63;;
38797;SDS011;24546;52.240;16.826;2022-11-20T13:11:27;43.75;;;23.52;;
38797;SDS011;24546;52.240;16.826;2022-11-20T13:21:44;34.85;;;20.15;;
38797;SDS011;24546;52.240;16.826;2022-11-20T13:26:47;35.10;;;21.00;;
38797;SDS011;24546;52.240;16.826;2022-11-20T13:31:48;53.60;;;28.52;;
38797;SDS011;24546;52.240;16.826;2022-11-20T13:36:50;70.10;;;36.75;;
38797;SDS011;24546;52.240;16.826;2022-11-20T13:41:55;66.25;;;32.72;;
38797;SDS011;24546;52.240;16.826;2022-11-20T13:47:00;60.67;;;30.67;;
38797;SDS011;24546;52.240;16.826;2022-11-20T13:52:04;60.47;;;32.45;;
38797;SDS011;24546;52.240;16.826;2022-11-20T14:02:25;42.50;;;23.02;;
38797;SDS011;24546;52.240;16.826;2022-11-20T14:07:49;42.25;;;23.15;;
38797;SDS011;24546;52.240;16.826;2022-11-20T14:12:52;49.20;;;27.05;;
38797;SDS011;24546;52.240;16.826;2022-11-20T14:17:54;51.35;;;27.95;;
38797;SDS011;24546;52.240;16.826;2022-11-20T14:22:55;50.72;;;28.10;;
38797;SDS011;24546;52.240;16.826;2022-11-20T14:28:02;61.72;;;33.17;;
38797;SDS011;24546;52.240;16.826;2022-11-20T14:33:04;56.30;;;31.45;;
38797;SDS011;24546;52.240;16.826;2022-11-20T14:38:09;60.30;;;32.35;;
38797;SDS011;24546;52.240;16.826;2022-11-20T14:48:19;62.73;;;34.47;;
38797;SDS011;24546;52.240;16.826;2022-11-20T14:53:26;57.92;;;32.10;;
38797;SDS011;24546;52.240;16.826;2022-11-20T14:58:28;73.53;;;37.88;;
38797;SDS011;24546;52.240;16.826;2022-11-20T15:03:38;74.75;;;38.75;;
38797;SDS011;24546;52.240;16.826;2022-11-20T15:08:52;66.22;;;34.63;;
38797;SDS011;24546;52.240;16.826;2022-11-20T15:13:53;71.30;;;37.47;;
38797;SDS011;24546;52.240;16.826;2022-11-20T15:18:54;75.53;;;39.67;;
38797;SDS011;24546;52.240;16.826;2022-11-20T15:23:56;79.97;;;40.42;;
38797;SDS011;24546;52.240;16.826;2022-11-20T15:28:57;79.85;;;42.20;;
38797;SDS011;24546;52.240;16.826;2022-11-20T15:34:00;75.30;;;37.33;;
38797;SDS011;24546;52.240;16.826;2022-11-20T15:39:02;77.60;;;40.08;;
38797;SDS011;24546;52.240;16.826;2022-11-20T15:44:03;63.92;;;33.40;;
38797;SDS011;24546;52.240;16.826;2022-11-20T15:49:05;64.45;;;34.13;;
38797;SDS011;24546;52.240;16.826;2022-11-20T15:54:13;58.70;;;31.45;;
38797;SDS011;24546;52.240;16.826;2022-11-20T15:59:17;59.07;;;30.13;;
38797;SDS011;24546;52.240;16.826;2022-11-20T16:04:19;56.80;;;30.15;;
38797;SDS011;24546;52.240;16.826;2022-11-20T16:09:20;54.65;;;29.23;;
38797;SDS011;24546;52.240;16.826;2022-11-20T16:14:24;57.05;;;30.92;;
38797;SDS011;24546;52.240;16.826;2022-11-20T16:19:44;57.33;;;31.08;;
38797;SDS011;24546;52.240;16.826;2022-11-20T16:24:45;54.67;;;28.58;;
38797;SDS011;24546;52.240;16.826;2022-11-20T16:29:46;58.83;;;29.38;;
38797;SDS011;24546;52.240;16.826;2022-11-20T16:34:50;54.83;;;29.42;;
38797;SDS011;24546;52.240;16.826;2022-11-20T16:39:50;58.60;;;30.50;;
38797;SDS011;24546;52.240;16.826;2022-11-20T16:44:52;57.85;;;29.63;;
38797;SDS011;24546;52.240;16.826;2022-11-20T16:49:53;65.70;;;33.28;;
38797;SDS011;24546;52.240;16.826;2022-11-20T16:54:54;63.35;;;32.15;;
38797;SDS011;24546;52.240;16.826;2022-11-20T16:59:55;67.57;;;32.22;;
38797;SDS011;24546;52.240;16.826;2022-11-20T17:04:56;63.90;;;32.63;;
38797;SDS011;24546;52.240;16.826;2022-11-20T17:10:00;64.30;;;34.78;;
38797;SDS011;24546;52.240;16.826;2022-11-20T17:15:01;59.25;;;30.73;;
38797;SDS011;24546;52.240;16.826;2022-11-20T17:20:02;56.70;;;28.30;;
38797;SDS011;24546;52.240;16.826;2022-11-20T17:25:05;59.10;;;28.40;;
38797;SDS011;24546;52.240;16.826;2022-11-20T17:30:07;56.58;;;29.65;;
38797;SDS011;24546;52.240;16.826;2022-11-20T17:35:08;53.28;;;28.50;;
38797;SDS011;24546;52.240;16.826;2022-11-20T17:40:09;50.00;;;26.17;;
38797;SDS011;24546;52.240;16.826;2022-11-20T17:45:10;53.00;;;27.85;;
38797;SDS011;24546;52.240;16.826;2022-11-20T17:50:11;56.33;;;28.30;;
38797;SDS011;24546;52.240;16.826;2022-11-20T17:55:13;59.13;;;31.98;;
38797;SDS011;24546;52.240;16.826;2022-11-20T18:00:14;64.30;;;33.17;;
38797;SDS011;24546;52.240;16.826;2022-11-20T18:05:16;73.93;;;39.08;;
38797;SDS011;24546;52.240;16.826;2022-11-20T18:10:17;96.47;;;49.75;;
38797;SDS011;24546;52.240;16.826;2022-11-20T18:15:18;108.63;;;53.30;;
38797;SDS011;24546;52.240;16.826;2022-11-20T18:20:19;130.32;;;63.30;;
38797;SDS011;24546;52.240;16.826;2022-11-20T18:25:21;152.10;;;74.95;;
38797;SDS011;24546;52.240;16.826;2022-11-20T18:30:22;136.25;;;67.95;;
38797;SDS011;24546;52.240;16.826;2022-11-20T18:35:25;148.80;;;74.80;;
38797;SDS011;24546;52.240;16.826;2022-11-20T18:40:28;161.55;;;76.32;;
38797;SDS011;24546;52.240;16.826;2022-11-20T18:45:30;174.10;;;81.63;;
38797;SDS011;24546;52.240;16.826;2022-11-20T18:50:31;165.30;;;79.00;;
38797;SDS011;24546;52.240;16.826;2022-11-20T18:55:32;167.82;;;83.25;;
38797;SDS011;24546;52.240;16.826;2022-11-20T19:00:35;174.05;;;84.93;;
38797;SDS011;24546;52.240;16.826;2022-11-20T19:05:35;177.90;;;86.03;;
38797;SDS011;24546;52.240;16.826;2022-11-20T19:10:37;180.40;;;87.00;;
38797;SDS011;24546;52.240;16.826;2022-11-20T19:15:42;150.48;;;73.85;;
38797;SDS011;24546;52.240;16.826;2022-11-20T19:20:43;141.75;;;70.00;;
38797;SDS011;24546;52.240;16.826;2022-11-20T19:25:44;150.02;;;71.90;;
38797;SDS011;24546;52.240;16.826;2022-11-20T19:30:45;138.63;;;70.93;;
38797;SDS011;24546;52.240;16.826;2022-11-20T19:35:46;122.43;;;61.17;;
38797;SDS011;24546;52.240;16.826;2022-11-20T19:40:47;122.18;;;62.13;;
38797;SDS011;24546;52.240;16.826;2022-11-20T19:45:48;126.28;;;63.70;;
38797;SDS011;24546;52.240;16.826;2022-11-20T19:50:49;123.13;;;59.47;;
38797;SDS011;24546;52.240;16.826;2022-11-20T19:55:56;109.57;;;56.50;;
38797;SDS011;24546;52.240;16.826;2022-11-20T20:01:20;129.05;;;60.53;;
38797;SDS011;24546;52.240;16.826;2022-11-20T20:06:24;100.47;;;48.38;;
38797;SDS011;24546;52.240;16.826;2022-11-20T20:11:26;99.32;;;49.72;;
38797;SDS011;24546;52.240;16.826;2022-11-20T20:16:29;77.80;;;39.80;;
38797;SDS011;24546;52.240;16.826;2022-11-20T20:21:31;62.40;;;33.15;;
38797;SDS011;24546;52.240;16.826;2022-11-20T20:26:34;61.63;;;31.60;;
38797;SDS011;24546;52.240;16.826;2022-11-20T20:31:35;62.28;;;31.08;;
38797;SDS011;24546;52.240;16.826;2022-11-20T20:36:35;54.45;;;29.10;;
38797;SDS011;24546;52.240;16.826;2022-11-20T20:41:36;55.17;;;27.55;;
38797;SDS011;24546;52.240;16.826;2022-11-20T20:46:41;51.28;;;26.83;;
38797;SDS011;24546;52.240;16.826;2022-11-20T20:51:43;47.42;;;23.80;;
38797;SDS011;24546;52.240;16.826;2022-11-20T20:56:44;52.42;;;26.17;;
38797;SDS011;24546;52.240;16.826;2022-11-20T21:01:44;58.78;;;29.15;;
38797;SDS011;24546;52.240;16.826;2022-11-20T21:06:45;64.55;;;30.60;;
38797;SDS011;24546;52.240;16.826;2022-11-20T21:11:46;59.63;;;29.63;;
38797;SDS011;24546;52.240;16.826;2022-11-20T21:16:47;51.83;;;27.08;;
38797;SDS011;24546;52.240;16.826;2022-11-20T21:21:48;51.25;;;25.58;;
38797;SDS011;24546;52.240;16.826;2022-11-20T21:26:58;48.85;;;24.17;;
38797;SDS011;24546;52.240;16.826;2022-11-20T21:32:00;42.35;;;22.23;;
38797;SDS011;24546;52.240;16.826;2022-11-20T21:37:01;44.53;;;22.15;;
38797;SDS011;24546;52.240;16.826;2022-11-20T21:42:02;48.28;;;22.80;;
38797;SDS011;24546;52.240;16.826;2022-11-20T21:47:03;46.22;;;22.77;;
38797;SDS011;24546;52.240;16.826;2022-11-20T21:52:04;56.65;;;26.88;;
38797;SDS011;24546;52.240;16.826;2022-11-20T21:57:05;61.08;;;30.63;;
38797;SDS011;24546;52.240;16.826;2022-11-20T22:02:08;61.00;;;29.75;;
38797;SDS011;24546;52.240;16.826;2022-11-20T22:07:18;66.95;;;31.90;;
38797;SDS011;24546;52.240;16.826;2022-11-20T22:12:19;70.85;;;32.97;;
38797;SDS011;24546;52.240;16.826;2022-11-20T22:17:20;69.00;;;32.47;;
38797;SDS011;24546;52.240;16.826;2022-11-20T22:22:41;72.70;;;34.75;;
38797;SDS011;24546;52.240;16.826;2022-11-20T22:27:44;71.38;;;34.00;;
38797;SDS011;24546;52.240;16.826;2022-11-20T22:32:45;70.30;;;31.33;;
38797;SDS011;24546;52.240;16.826;2022-11-20T22:37:49;69.25;;;32.17;;
38797;SDS011;24546;52.240;16.826;2022-11-20T22:42:50;63.28;;;30.25;;
38797;SDS011;24546;52.240;16.826;2022-11-20T22:47:51;75.35;;;35.80;;
38797;SDS011;24546;52.240;16.826;2022-11-20T22:52:52;83.78;;;35.55;;
38797;SDS011;24546;52.240;16.826;2022-11-20T22:57:53;79.05;;;34.92;;
38797;SDS011;24546;52.240;16.826;2022-11-20T23:02:54;74.32;;;34.53;;
38797;SDS011;24546;52.240;16.826;2022-11-20T23:07:55;81.43;;;35.40;;
38797;SDS011;24546;52.240;16.826;2022-11-20T23:12:56;75.85;;;32.90;;
38797;SDS011;24546;52.240;16.826;2022-11-20T23:17:56;70.25;;;33.75;;
38797;SDS011;24546;52.240;16.826;2022-11-20T23:22:57;78.75;;;36.70;;
38797;SDS011;24546;52.240;16.826;2022-11-20T23:27:58;81.05;;;36.38;;
38797;SDS011;24546;52.240;16.826;2022-11-20T23:32:59;71.03;;;31.98;;
38797;SDS011;24546;52.240;16.826;2022-11-20T23:38:00;63.22;;;32.33;;
38797;SDS011;24546;52.240;16.826;2022-11-20T23:43:01;59.70;;;27.08;;
38797;SDS011;24546;52.240;16.826;2022-11-20T23:48:17;65.28;;;33.28;;
38797;SDS011;24546;52.240;16.826;2022-11-20T23:53:20;77.22;;;34.33;;
38797;SDS011;24546;52.240;16.826;2022-11-20T23:58:21;88.32;;;37.28;;
